createdAt,value
2023-07-15T00:00:26.327Z,456.00
2023-07-15T00:01:26.419Z,456.00
2023-07-15T00:02:26.418Z,455.00
2023-07-15T00:03:26.462Z,454.00
2023-07-15T00:04:26.464Z,454.00
2023-07-15T00:05:26.514Z,454.00
2023-07-15T00:06:26.549Z,453.00
2023-07-15T00:07:26.577Z,454.00
2023-07-15T00:08:26.677Z,453.00
2023-07-15T00:09:26.642Z,454.00
2023-07-15T00:10:26.680Z,453.00
2023-07-15T00:11:26.731Z,454.00
2023-07-15T00:12:26.776Z,451.00
2023-07-15T00:13:26.780Z,452.00
2023-07-15T00:14:26.808Z,453.00
2023-07-15T00:15:26.872Z,452.00
2023-07-15T00:16:26.944Z,450.00
2023-07-15T00:17:26.981Z,449.00
2023-07-15T00:18:26.963Z,448.00
2023-07-15T00:19:26.996Z,449.00
2023-07-15T00:20:27.020Z,451.00
2023-07-15T00:21:27.099Z,449.00
2023-07-15T00:22:27.148Z,449.00
2023-07-15T00:23:27.116Z,450.00
2023-07-15T00:24:27.143Z,450.00
2023-07-15T00:25:27.172Z,448.00
2023-07-15T00:26:27.238Z,449.00
2023-07-15T00:27:27.251Z,448.00
2023-07-15T00:28:27.299Z,451.00
2023-07-15T00:29:27.327Z,449.00
2023-07-15T00:30:27.367Z,450.00
2023-07-15T00:31:27.636Z,449.00
2023-07-15T00:32:27.449Z,448.00
2023-07-15T00:33:27.463Z,447.00
2023-07-15T00:34:27.491Z,446.00
2023-07-15T00:35:27.538Z,447.00
2023-07-15T00:36:27.582Z,447.00
2023-07-15T00:37:27.579Z,446.00
2023-07-15T00:38:27.631Z,445.00
2023-07-15T00:39:27.699Z,447.00
2023-07-15T00:40:27.711Z,446.00
2023-07-15T00:41:27.757Z,446.00
2023-07-15T00:42:27.773Z,447.00
2023-07-15T00:43:27.834Z,446.00
2023-07-15T00:44:27.862Z,448.00
2023-07-15T00:45:27.907Z,450.00
2023-07-15T00:46:28.005Z,452.00
2023-07-15T00:47:27.989Z,453.00
2023-07-15T00:48:28.008Z,455.00
2023-07-15T00:49:28.048Z,455.00
2023-07-15T00:50:28.085Z,456.00
2023-07-15T00:51:28.137Z,456.00
2023-07-15T00:52:28.155Z,456.00
2023-07-15T00:53:28.196Z,455.00
2023-07-15T00:54:28.252Z,457.00
2023-07-15T00:55:28.303Z,457.00
2023-07-15T00:56:28.340Z,458.00
2023-07-15T00:57:28.373Z,457.00
2023-07-15T00:58:28.404Z,457.00
2023-07-15T00:59:28.458Z,456.00
2023-07-15T01:00:28.485Z,452.00
2023-07-15T01:01:28.622Z,452.00
2023-07-15T01:02:28.772Z,452.00
2023-07-15T01:03:28.708Z,454.00
2023-07-15T01:04:28.644Z,454.00
2023-07-15T01:05:28.679Z,454.00
2023-07-15T01:06:35.774Z,454.00
2023-07-15T01:07:28.734Z,454.00
2023-07-15T01:08:28.720Z,454.00
2023-07-15T01:09:28.735Z,457.00
2023-07-15T01:10:28.688Z,457.00
2023-07-15T01:11:28.671Z,457.00
2023-07-15T01:12:28.671Z,457.00
2023-07-15T01:13:28.682Z,456.00
2023-07-15T01:14:28.658Z,454.00
2023-07-15T01:15:28.643Z,453.00
2023-07-15T01:16:28.659Z,449.00
2023-07-15T01:17:28.658Z,449.00
2023-07-15T01:18:28.643Z,450.00
2023-07-15T01:19:28.791Z,452.00
2023-07-15T01:20:28.617Z,456.00
2023-07-15T01:21:28.624Z,457.00
2023-07-15T01:22:28.615Z,459.00
2023-07-15T01:23:28.597Z,462.00
2023-07-15T01:24:28.583Z,463.00
2023-07-15T01:25:28.584Z,464.00
2023-07-15T01:26:28.575Z,462.00
2023-07-15T01:27:28.579Z,462.00
2023-07-15T01:28:28.636Z,462.00
2023-07-15T01:29:28.568Z,462.00
2023-07-15T01:30:28.553Z,462.00
2023-07-15T01:31:28.566Z,463.00
2023-07-15T01:32:28.573Z,464.00
2023-07-15T01:33:28.533Z,464.00
2023-07-15T01:34:28.543Z,463.00
2023-07-15T01:35:28.578Z,464.00
2023-07-15T01:36:28.650Z,462.00
2023-07-15T01:37:28.669Z,462.00
2023-07-15T01:38:28.737Z,463.00
2023-07-15T01:39:28.786Z,463.00
2023-07-15T01:40:28.808Z,462.00
2023-07-15T01:41:28.857Z,462.00
2023-07-15T01:42:28.921Z,463.00
2023-07-15T01:43:28.955Z,463.00
2023-07-15T01:44:28.989Z,464.00
2023-07-15T01:45:29.034Z,463.00
2023-07-15T01:46:29.120Z,462.00
2023-07-15T01:47:29.140Z,461.00
2023-07-15T01:48:29.166Z,462.00
2023-07-15T01:49:29.234Z,463.00
2023-07-15T01:50:29.266Z,464.00
2023-07-15T01:51:29.315Z,462.00
2023-07-15T01:52:29.361Z,460.00
2023-07-15T01:53:29.388Z,459.00
2023-07-15T01:54:29.443Z,459.00
2023-07-15T01:55:29.483Z,457.00
2023-07-15T01:56:29.530Z,456.00
2023-07-15T01:57:29.565Z,456.00
2023-07-15T01:58:29.617Z,456.00
2023-07-15T01:59:29.657Z,455.00
2023-07-15T02:00:29.693Z,455.00
2023-07-15T02:01:29.894Z,456.00
2023-07-15T02:02:29.870Z,458.00
2023-07-15T02:03:29.891Z,460.00
2023-07-15T02:04:29.852Z,458.00
2023-07-15T02:05:29.917Z,460.00
2023-07-15T02:06:29.989Z,462.00
2023-07-15T02:07:29.999Z,462.00
2023-07-15T02:08:30.046Z,460.00
2023-07-15T02:09:30.094Z,461.00
2023-07-15T02:10:30.146Z,465.00
2023-07-15T02:11:30.190Z,465.00
2023-07-15T02:12:30.247Z,463.00
2023-07-15T02:13:30.299Z,463.00
2023-07-15T02:14:30.335Z,464.00
2023-07-15T02:15:30.392Z,463.00
2023-07-15T02:16:30.546Z,463.00
2023-07-15T02:17:30.540Z,464.00
2023-07-15T02:18:30.549Z,466.00
2023-07-15T02:19:30.567Z,466.00
2023-07-15T02:20:30.617Z,468.00
2023-07-15T02:21:30.677Z,466.00
2023-07-15T02:22:30.844Z,464.00
2023-07-15T02:23:30.773Z,465.00
2023-07-15T02:24:30.819Z,466.00
2023-07-15T02:25:30.868Z,465.00
2023-07-15T02:26:30.899Z,463.00
2023-07-15T02:27:30.977Z,464.00
2023-07-15T02:28:31.023Z,463.00
2023-07-15T02:29:31.074Z,463.00
2023-07-15T02:30:31.171Z,464.00
2023-07-15T02:31:31.187Z,465.00
2023-07-15T02:32:31.188Z,464.00
2023-07-15T02:33:31.224Z,463.00
2023-07-15T02:34:31.287Z,463.00
2023-07-15T02:35:31.319Z,464.00
2023-07-15T02:36:31.355Z,465.00
2023-07-15T02:37:31.422Z,466.00
2023-07-15T02:38:31.433Z,467.00
2023-07-15T02:39:31.472Z,466.00
2023-07-15T02:40:31.530Z,464.00
2023-07-15T02:41:31.552Z,465.00
2023-07-15T02:42:31.625Z,463.00
2023-07-15T02:43:31.638Z,462.00
2023-07-15T02:44:31.676Z,461.00
2023-07-15T02:45:31.734Z,459.00
2023-07-15T02:46:31.806Z,460.00
2023-07-15T02:47:31.808Z,461.00
2023-07-15T02:48:31.837Z,461.00
2023-07-15T02:49:31.893Z,464.00
2023-07-15T02:50:31.912Z,464.00
2023-07-15T02:51:31.970Z,464.00
2023-07-15T02:52:31.992Z,464.00
2023-07-15T02:53:32.039Z,467.00
2023-07-15T02:54:32.113Z,467.00
2023-07-15T02:55:32.108Z,469.00
2023-07-15T02:56:32.192Z,468.00
2023-07-15T02:57:32.210Z,469.00
2023-07-15T02:58:32.239Z,466.00
2023-07-15T02:59:32.288Z,464.00
2023-07-15T03:00:32.320Z,462.00
2023-07-15T03:01:32.407Z,461.00
2023-07-15T03:02:32.430Z,460.00
2023-07-15T03:03:32.487Z,460.00
2023-07-15T03:04:32.515Z,462.00
2023-07-15T03:05:32.704Z,464.00
2023-07-15T03:06:32.599Z,465.00
2023-07-15T03:07:32.664Z,469.00
2023-07-15T03:08:32.743Z,470.00
2023-07-15T03:09:32.761Z,471.00
2023-07-15T03:10:32.793Z,471.00
2023-07-15T03:11:32.863Z,471.00
2023-07-15T03:12:32.891Z,472.00
2023-07-15T03:13:32.957Z,472.00
2023-07-15T03:14:32.985Z,474.00
2023-07-15T03:15:33.018Z,475.00
2023-07-15T03:16:33.119Z,474.00
2023-07-15T03:17:33.106Z,471.00
2023-07-15T03:18:33.168Z,472.00
2023-07-15T03:19:33.180Z,472.00
2023-07-15T03:20:33.238Z,474.00
2023-07-15T03:21:33.264Z,472.00
2023-07-15T03:22:33.353Z,473.00
2023-07-15T03:23:33.383Z,475.00
2023-07-15T03:24:33.414Z,474.00
2023-07-15T03:25:33.457Z,472.00
2023-07-15T03:26:33.511Z,473.00
2023-07-15T03:27:33.566Z,474.00
2023-07-15T03:28:33.613Z,473.00
2023-07-15T03:29:33.693Z,475.00
2023-07-15T03:30:33.711Z,476.00
2023-07-15T03:31:33.789Z,476.00
2023-07-15T03:32:33.854Z,475.00
2023-07-15T03:33:33.853Z,474.00
2023-07-15T03:34:33.923Z,475.00
2023-07-15T03:35:33.936Z,476.00
2023-07-15T03:36:34.000Z,474.00
2023-07-15T03:37:34.057Z,474.00
2023-07-15T03:38:34.100Z,475.00
2023-07-15T03:39:34.154Z,475.00
2023-07-15T03:40:34.213Z,476.00
2023-07-15T03:41:34.245Z,475.00
2023-07-15T03:42:34.320Z,475.00
2023-07-15T03:43:34.351Z,474.00
2023-07-15T03:44:34.414Z,474.00
2023-07-15T03:45:34.448Z,475.00
2023-07-15T03:46:34.559Z,474.00
2023-07-15T03:47:34.571Z,476.00
2023-07-15T03:48:34.594Z,477.00
2023-07-15T03:49:34.651Z,475.00
2023-07-15T03:50:34.695Z,475.00
2023-07-15T03:51:34.744Z,476.00
2023-07-15T03:52:34.813Z,478.00
2023-07-15T03:53:34.840Z,479.00
2023-07-15T03:54:34.901Z,479.00
2023-07-15T03:55:34.966Z,477.00
2023-07-15T03:56:34.994Z,477.00
2023-07-15T03:57:35.189Z,475.00
2023-07-15T03:58:35.132Z,475.00
2023-07-15T03:59:35.172Z,476.00
2023-07-15T04:00:35.235Z,478.00
2023-07-15T04:01:35.324Z,479.00
2023-07-15T04:02:35.389Z,479.00
2023-07-15T04:03:35.476Z,478.00
2023-07-15T04:04:35.442Z,475.00
2023-07-15T04:05:35.502Z,475.00
2023-07-15T04:06:35.582Z,477.00
2023-07-15T04:07:35.585Z,477.00
2023-07-15T04:08:35.659Z,477.00
2023-07-15T04:09:35.703Z,477.00
2023-07-15T04:10:35.772Z,474.00
2023-07-15T04:11:35.788Z,473.00
2023-07-15T04:12:35.845Z,472.00
2023-07-15T04:13:35.894Z,471.00
2023-07-15T04:14:35.967Z,469.00
2023-07-15T04:15:35.991Z,468.00
2023-07-15T04:16:36.123Z,470.00
2023-07-15T04:17:36.113Z,470.00
2023-07-15T04:18:36.161Z,471.00
2023-07-15T04:19:36.193Z,471.00
2023-07-15T04:20:36.244Z,472.00
2023-07-15T04:21:36.274Z,471.00
2023-07-15T04:22:36.376Z,471.00
2023-07-15T04:23:36.382Z,472.00
2023-07-15T04:24:36.420Z,473.00
2023-07-15T04:25:36.460Z,473.00
2023-07-15T04:26:36.504Z,472.00
2023-07-15T04:27:36.545Z,473.00
2023-07-15T04:28:36.596Z,472.00
2023-07-15T04:29:36.646Z,472.00
2023-07-15T04:30:36.674Z,473.00
2023-07-15T04:31:36.740Z,473.00
2023-07-15T04:32:36.793Z,472.00
2023-07-15T04:33:36.799Z,473.00
2023-07-15T04:34:36.864Z,473.00
2023-07-15T04:35:36.926Z,475.00
2023-07-15T04:36:36.962Z,474.00
2023-07-15T04:37:37.004Z,473.00
2023-07-15T04:38:37.052Z,473.00
2023-07-15T04:39:37.096Z,473.00
2023-07-15T04:40:37.124Z,474.00
2023-07-15T04:41:37.190Z,473.00
2023-07-15T04:42:37.268Z,470.00
2023-07-15T04:43:37.290Z,470.00
2023-07-15T04:44:37.358Z,469.00
2023-07-15T04:45:37.426Z,468.00
2023-07-15T04:46:37.495Z,468.00
2023-07-15T04:47:37.667Z,468.00
2023-07-15T04:48:37.568Z,470.00
2023-07-15T04:49:37.620Z,471.00
2023-07-15T04:50:37.638Z,472.00
2023-07-15T04:51:37.707Z,476.00
2023-07-15T04:52:37.735Z,476.00
2023-07-15T04:53:37.788Z,477.00
2023-07-15T04:54:37.855Z,478.00
2023-07-15T04:55:39.558Z,478.00
2023-07-15T04:56:37.884Z,476.00
2023-07-15T04:57:37.880Z,477.00
2023-07-15T04:58:37.871Z,477.00
2023-07-15T04:59:37.869Z,479.00
2023-07-15T05:00:37.857Z,482.00
2023-07-15T05:01:37.859Z,482.00
2023-07-15T05:02:37.868Z,482.00
2023-07-15T05:03:37.893Z,483.00
2023-07-15T05:04:37.830Z,480.00
2023-07-15T05:05:37.821Z,480.00
2023-07-15T05:06:37.808Z,483.00
2023-07-15T05:07:55.516Z,483.00
2023-07-15T05:08:38.928Z,484.00
2023-07-15T05:09:37.771Z,485.00
2023-07-15T05:10:37.770Z,483.00
2023-07-15T05:11:37.772Z,485.00
2023-07-15T05:12:37.773Z,485.00
2023-07-15T05:13:37.765Z,485.00
2023-07-15T05:14:37.764Z,485.00
2023-07-15T05:15:37.783Z,483.00
2023-07-15T05:16:37.731Z,482.00
2023-07-15T05:17:37.781Z,482.00
2023-07-15T05:18:37.745Z,482.00
2023-07-15T05:19:37.807Z,482.00
2023-07-15T05:20:37.827Z,485.00
2023-07-15T05:21:37.914Z,483.00
2023-07-15T05:22:38.072Z,483.00
2023-07-15T05:23:37.969Z,484.00
2023-07-15T05:24:38.020Z,485.00
2023-07-15T05:25:38.083Z,486.00
2023-07-15T05:26:38.128Z,486.00
2023-07-15T05:27:38.169Z,484.00
2023-07-15T05:28:38.202Z,483.00
2023-07-15T05:29:38.270Z,480.00
2023-07-15T05:30:38.291Z,481.00
2023-07-15T05:31:38.410Z,482.00
2023-07-15T05:32:38.423Z,483.00
2023-07-15T05:33:38.447Z,484.00
2023-07-15T05:34:38.476Z,485.00
2023-07-15T05:35:38.528Z,487.00
2023-07-15T05:36:38.549Z,486.00
2023-07-15T05:37:38.593Z,489.00
2023-07-15T05:38:38.626Z,489.00
2023-07-15T05:39:38.677Z,489.00
2023-07-15T05:40:38.727Z,489.00
2023-07-15T05:41:38.752Z,489.00
2023-07-15T05:42:38.790Z,490.00
2023-07-15T05:43:38.840Z,489.00
2023-07-15T05:44:38.865Z,489.00
2023-07-15T05:45:38.894Z,489.00
2023-07-15T05:46:39.015Z,488.00
2023-07-15T05:47:39.053Z,488.00
2023-07-15T05:48:39.005Z,485.00
2023-07-15T05:49:39.054Z,484.00
2023-07-15T05:50:39.115Z,483.00
2023-07-15T05:51:39.124Z,483.00
2023-07-15T05:52:39.174Z,482.00
2023-07-15T05:53:39.207Z,482.00
2023-07-15T05:54:39.270Z,484.00
2023-07-15T05:55:39.282Z,483.00
2023-07-15T05:56:39.325Z,485.00
2023-07-15T05:57:39.363Z,487.00
2023-07-15T05:58:39.415Z,491.00
2023-07-15T05:59:39.456Z,492.00
2023-07-15T06:00:39.502Z,493.00
2023-07-15T06:01:39.598Z,493.00
2023-07-15T06:02:39.637Z,494.00
2023-07-15T06:03:39.677Z,494.00
2023-07-15T06:04:39.643Z,495.00
2023-07-15T06:05:39.674Z,491.00
2023-07-15T06:06:39.726Z,491.00
2023-07-15T06:07:39.743Z,490.00
2023-07-15T06:08:39.779Z,491.00
2023-07-15T06:09:39.851Z,492.00
2023-07-15T06:10:39.856Z,490.00
2023-07-15T06:11:39.912Z,490.00
2023-07-15T06:12:39.945Z,492.00
2023-07-15T06:13:39.985Z,493.00
2023-07-15T06:14:40.044Z,492.00
2023-07-15T06:15:40.100Z,492.00
2023-07-15T06:16:40.153Z,492.00
2023-07-15T06:17:40.180Z,492.00
2023-07-15T06:18:40.186Z,491.00
2023-07-15T06:19:40.345Z,494.00
2023-07-15T06:20:40.247Z,498.00
2023-07-15T06:21:40.307Z,498.00
2023-07-15T06:22:40.361Z,498.00
2023-07-15T06:23:40.384Z,498.00
2023-07-15T06:24:40.414Z,499.00
2023-07-15T06:25:40.433Z,496.00
2023-07-15T06:26:40.480Z,497.00
2023-07-15T06:27:40.512Z,496.00
2023-07-15T06:28:40.563Z,497.00
2023-07-15T06:29:40.615Z,498.00
2023-07-15T06:30:40.649Z,498.00
2023-07-15T06:31:40.751Z,499.00
2023-07-15T06:32:40.781Z,498.00
2023-07-15T06:33:40.728Z,498.00
2023-07-15T06:34:40.783Z,496.00
2023-07-15T06:35:40.804Z,495.00
2023-07-15T06:36:40.834Z,492.00
2023-07-15T06:37:40.914Z,494.00
2023-07-15T06:38:40.906Z,493.00
2023-07-15T06:39:41.028Z,492.00
2023-07-15T06:40:41.010Z,493.00
2023-07-15T06:41:41.030Z,496.00
2023-07-15T06:42:41.059Z,495.00
2023-07-15T06:43:41.115Z,496.00
2023-07-15T06:44:44.003Z,495.00
2023-07-15T06:45:41.142Z,494.00
2023-07-15T06:46:41.172Z,494.00
2023-07-15T06:47:41.198Z,492.00
2023-07-15T06:48:41.119Z,493.00
2023-07-15T06:49:41.116Z,494.00
2023-07-15T06:50:41.096Z,493.00
2023-07-15T06:51:41.103Z,494.00
2023-07-15T06:52:41.085Z,495.00
2023-07-15T06:53:41.078Z,494.00
2023-07-15T06:54:41.081Z,495.00
2023-07-15T06:55:41.068Z,493.00
2023-07-15T06:56:41.059Z,494.00
2023-07-15T06:57:41.054Z,493.00
2023-07-15T06:58:44.138Z,495.00
2023-07-15T06:59:41.033Z,494.00
2023-07-15T07:00:41.050Z,493.00
2023-07-15T07:01:41.094Z,492.00
2023-07-15T07:02:41.071Z,493.00
2023-07-15T07:03:41.007Z,490.00
2023-07-15T07:04:41.003Z,488.00
2023-07-15T07:05:41.036Z,487.00
2023-07-15T07:06:41.009Z,485.00
2023-07-15T07:07:40.987Z,487.00
2023-07-15T07:08:40.995Z,489.00
2023-07-15T07:09:40.985Z,490.00
2023-07-15T07:10:40.964Z,490.00
2023-07-15T07:11:40.966Z,490.00
2023-07-15T07:12:40.963Z,490.00
2023-07-15T07:13:40.960Z,491.00
2023-07-15T07:14:40.938Z,491.00
2023-07-15T07:15:40.930Z,494.00
2023-07-15T07:16:40.920Z,493.00
2023-07-15T07:17:41.035Z,493.00
2023-07-15T07:18:40.991Z,495.00
2023-07-15T07:19:40.926Z,494.00
2023-07-15T07:20:40.902Z,495.00
2023-07-15T07:21:40.902Z,496.00
2023-07-15T07:22:40.952Z,497.00
2023-07-15T07:23:40.878Z,499.00
2023-07-15T07:24:40.885Z,499.00
2023-07-15T07:25:40.869Z,501.00
2023-07-15T07:26:40.867Z,502.00
2023-07-15T07:27:40.852Z,499.00
2023-07-15T07:28:40.864Z,498.00
2023-07-15T07:29:40.874Z,498.00
2023-07-15T07:30:40.883Z,497.00
2023-07-15T07:31:40.827Z,496.00
2023-07-15T07:32:40.877Z,498.00
2023-07-15T07:33:40.887Z,500.00
2023-07-15T07:34:40.930Z,501.00
2023-07-15T07:35:40.937Z,501.00
2023-07-15T07:36:40.966Z,500.00
2023-07-15T07:37:41.057Z,503.00
2023-07-15T07:38:41.029Z,504.00
2023-07-15T07:39:41.067Z,502.00
2023-07-15T07:40:41.114Z,502.00
2023-07-15T07:41:41.117Z,502.00
2023-07-15T07:42:41.167Z,503.00
2023-07-15T07:43:41.180Z,503.00
2023-07-15T07:44:41.255Z,501.00
2023-07-15T07:45:41.266Z,504.00
2023-07-15T07:46:41.394Z,506.00
2023-07-15T07:47:41.343Z,508.00
2023-07-15T07:48:41.339Z,509.00
2023-07-15T07:49:41.383Z,508.00
2023-07-15T07:50:41.424Z,509.00
2023-07-15T07:51:41.421Z,510.00
2023-07-15T07:52:41.509Z,511.00
2023-07-15T07:53:41.511Z,512.00
2023-07-15T07:54:41.530Z,512.00
2023-07-15T07:55:41.558Z,512.00
2023-07-15T07:56:41.587Z,511.00
2023-07-15T07:57:41.601Z,510.00
2023-07-15T07:58:41.632Z,512.00
2023-07-15T07:59:41.690Z,511.00
2023-07-15T08:00:41.687Z,509.00
2023-07-15T08:01:41.721Z,509.00
2023-07-15T08:02:41.867Z,508.00
2023-07-15T08:03:41.907Z,510.00
2023-07-15T08:04:41.841Z,509.00
2023-07-15T08:05:41.832Z,509.00
2023-07-15T08:06:41.856Z,507.00
2023-07-15T08:07:41.886Z,508.00
2023-07-15T08:08:41.911Z,506.00
2023-07-15T08:09:41.969Z,510.00
2023-07-15T08:10:41.971Z,509.00
2023-07-15T08:11:41.996Z,510.00
2023-07-15T08:12:42.017Z,509.00
2023-07-15T08:13:42.060Z,508.00
2023-07-15T08:14:42.413Z,507.00
2023-07-15T08:15:42.129Z,506.00
2023-07-15T08:16:42.135Z,506.00
2023-07-15T08:17:42.263Z,505.00
2023-07-15T08:18:42.204Z,504.00
2023-07-15T08:19:42.209Z,504.00
2023-07-15T08:20:42.232Z,505.00
2023-07-15T08:21:42.276Z,505.00
2023-07-15T08:22:42.415Z,505.00
2023-07-15T08:23:42.328Z,506.00
2023-07-15T08:24:42.370Z,506.00
2023-07-15T08:25:42.381Z,507.00
2023-07-15T08:26:42.419Z,506.00
2023-07-15T08:27:42.440Z,508.00
2023-07-15T08:28:42.492Z,507.00
2023-07-15T08:29:42.503Z,507.00
2023-07-15T08:30:42.523Z,508.00
2023-07-15T08:31:42.585Z,505.00
2023-07-15T08:32:42.619Z,505.00
2023-07-15T08:33:42.627Z,505.00
2023-07-15T08:34:42.628Z,505.00
2023-07-15T08:35:42.656Z,503.00
2023-07-15T08:36:42.681Z,504.00
2023-07-15T08:37:42.695Z,504.00
2023-07-15T08:38:42.733Z,502.00
2023-07-15T08:39:42.743Z,500.00
2023-07-15T08:40:42.758Z,500.00
2023-07-15T08:41:42.817Z,498.00
2023-07-15T08:42:42.878Z,499.00
2023-07-15T08:43:42.849Z,499.00
2023-07-15T08:44:42.879Z,502.00
2023-07-15T08:45:42.903Z,500.00
2023-07-15T08:46:43.008Z,500.00
2023-07-15T08:47:42.962Z,497.00
2023-07-15T08:48:42.967Z,498.00
2023-07-15T08:49:42.994Z,497.00
2023-07-15T08:50:43.009Z,498.00
2023-07-15T08:51:43.030Z,501.00
2023-07-15T08:52:43.066Z,502.00
2023-07-15T08:53:43.110Z,501.00
2023-07-15T08:54:43.108Z,501.00
2023-07-15T08:55:43.173Z,501.00
2023-07-15T08:56:43.172Z,502.00
2023-07-15T08:57:43.183Z,501.00
2023-07-15T08:58:43.219Z,498.00
2023-07-15T08:59:43.250Z,497.00
2023-07-15T09:00:43.266Z,496.00
2023-07-15T09:01:45.244Z,494.00
2023-07-15T09:02:43.328Z,493.00
2023-07-15T09:03:43.352Z,494.00
2023-07-15T09:04:43.434Z,495.00
2023-07-15T09:05:43.357Z,502.00
2023-07-15T09:06:43.399Z,540.00
2023-07-15T09:07:44.948Z,545.00
2023-07-15T09:08:43.472Z,550.00
2023-07-15T09:09:43.483Z,553.00
2023-07-15T09:10:43.472Z,552.00
2023-07-15T09:11:43.622Z,556.00
2023-07-15T09:12:43.552Z,565.00
2023-07-15T09:13:45.173Z,572.00
2023-07-15T09:14:46.765Z,578.00
2023-07-15T09:15:44.566Z,586.00
2023-07-15T09:16:43.652Z,595.00
2023-07-15T09:17:43.611Z,602.00
2023-07-15T09:18:43.543Z,604.00
2023-07-15T09:19:43.555Z,603.00
2023-07-15T09:20:43.543Z,603.00
2023-07-15T09:21:43.527Z,604.00
2023-07-15T09:22:43.554Z,603.00
2023-07-15T09:23:43.517Z,603.00
2023-07-15T09:24:43.541Z,604.00
2023-07-15T09:25:43.503Z,606.00
2023-07-15T09:26:43.502Z,607.00
2023-07-15T09:27:43.504Z,608.00
2023-07-15T09:28:43.492Z,608.00
2023-07-15T09:29:43.506Z,605.00
2023-07-15T09:30:43.486Z,603.00
2023-07-15T09:31:43.511Z,602.00
2023-07-15T09:32:43.526Z,601.00
2023-07-15T09:33:43.452Z,602.00
2023-07-15T09:34:43.455Z,603.00
2023-07-15T09:35:43.482Z,602.00
2023-07-15T09:36:43.499Z,604.00
2023-07-15T09:37:43.516Z,603.00
2023-07-15T09:38:43.550Z,604.00
2023-07-15T09:39:43.579Z,603.00
2023-07-15T09:40:43.635Z,602.00
2023-07-15T09:41:43.640Z,603.00
2023-07-15T09:42:43.645Z,602.00
2023-07-15T09:43:43.660Z,599.00
2023-07-15T09:44:43.699Z,599.00
2023-07-15T09:45:43.749Z,598.00
2023-07-15T09:46:43.743Z,599.00
2023-07-15T09:47:43.786Z,599.00
2023-07-15T09:48:43.801Z,597.00
2023-07-15T09:49:43.802Z,596.00
2023-07-15T09:50:43.876Z,596.00
2023-07-15T09:51:43.861Z,596.00
2023-07-15T09:52:43.883Z,599.00
2023-07-15T09:53:43.925Z,600.00
2023-07-15T09:54:43.907Z,598.00
2023-07-15T09:55:44.956Z,595.00
2023-07-15T09:56:43.952Z,594.00
2023-07-15T09:57:43.970Z,593.00
2023-07-15T09:58:43.990Z,590.00
2023-07-15T09:59:43.994Z,588.00
2023-07-15T10:00:44.000Z,586.00
2023-07-15T10:01:44.109Z,586.00
2023-07-15T10:02:44.145Z,589.00
2023-07-15T10:03:44.077Z,590.00
2023-07-15T10:04:44.115Z,590.00
2023-07-15T10:05:44.094Z,591.00
2023-07-15T10:06:44.135Z,592.00
2023-07-15T10:07:44.157Z,596.00
2023-07-15T10:08:44.193Z,596.00
2023-07-15T10:09:44.187Z,593.00
2023-07-15T10:10:44.209Z,591.00
2023-07-15T10:11:44.221Z,590.00
2023-07-15T10:12:44.249Z,588.00
2023-07-15T10:13:44.258Z,587.00
2023-07-15T10:14:44.286Z,585.00
2023-07-15T10:15:44.333Z,585.00
2023-07-15T10:16:44.323Z,584.00
2023-07-15T10:17:44.359Z,584.00
2023-07-15T10:18:44.365Z,585.00
2023-07-15T10:19:44.413Z,583.00
2023-07-15T10:20:44.404Z,581.00
2023-07-15T10:21:44.424Z,582.00
2023-07-15T10:22:44.498Z,580.00
2023-07-15T10:23:44.469Z,579.00
2023-07-15T10:24:44.505Z,578.00
2023-07-15T10:25:44.542Z,576.00
2023-07-15T10:26:44.534Z,576.00
2023-07-15T10:27:44.586Z,577.00
2023-07-15T10:28:44.591Z,576.00
2023-07-15T10:29:47.916Z,576.00
2023-07-15T10:30:53.858Z,572.00
2023-07-15T10:31:45.627Z,572.00
2023-07-15T10:32:44.618Z,573.00
2023-07-15T10:33:44.587Z,574.00
2023-07-15T10:34:44.614Z,571.00
2023-07-15T10:35:44.566Z,569.00
2023-07-15T10:36:44.556Z,566.00
2023-07-15T10:37:44.555Z,566.00
2023-07-15T10:38:44.535Z,566.00
2023-07-15T10:39:44.536Z,564.00
2023-07-15T10:40:44.582Z,565.00
2023-07-15T10:41:44.534Z,564.00
2023-07-15T10:42:44.511Z,566.00
2023-07-15T10:43:44.506Z,564.00
2023-07-15T10:44:44.494Z,564.00
2023-07-15T10:45:44.500Z,566.00
2023-07-15T10:46:44.497Z,565.00
2023-07-15T10:47:44.514Z,563.00
2023-07-15T10:48:44.501Z,561.00
2023-07-15T10:49:44.483Z,563.00
2023-07-15T10:50:44.464Z,564.00
2023-07-15T10:51:44.453Z,562.00
2023-07-15T10:52:44.453Z,562.00
2023-07-15T10:53:44.451Z,562.00
2023-07-15T10:54:44.435Z,562.00
2023-07-15T10:55:44.433Z,564.00
2023-07-15T10:56:44.431Z,564.00
2023-07-15T10:57:54.462Z,564.00
2023-07-15T10:58:45.411Z,565.00
2023-07-15T10:59:44.419Z,563.00
2023-07-15T11:00:44.422Z,562.00
2023-07-15T11:01:44.451Z,562.00
2023-07-15T11:02:44.444Z,561.00
2023-07-15T11:03:44.394Z,560.00
2023-07-15T11:04:44.399Z,558.00
2023-07-15T11:05:44.402Z,558.00
2023-07-15T11:06:44.377Z,557.00
2023-07-15T11:07:44.357Z,558.00
2023-07-15T11:08:44.364Z,556.00
2023-07-15T11:09:44.338Z,556.00
2023-07-15T11:10:44.390Z,557.00
2023-07-15T11:11:44.325Z,556.00
2023-07-15T11:12:44.318Z,556.00
2023-07-15T11:13:44.309Z,554.00
2023-07-15T11:14:44.351Z,553.00
2023-07-15T11:15:44.302Z,551.00
2023-07-15T11:16:44.326Z,549.00
2023-07-15T11:17:44.346Z,548.00
2023-07-15T11:18:44.274Z,547.00
2023-07-15T11:19:44.270Z,547.00
2023-07-15T11:20:44.276Z,549.00
2023-07-15T11:21:44.263Z,547.00
2023-07-15T11:22:44.331Z,547.00
2023-07-15T11:23:44.301Z,543.00
2023-07-15T11:24:44.259Z,542.00
2023-07-15T11:25:44.304Z,541.00
2023-07-15T11:26:44.309Z,541.00
2023-07-15T11:27:44.318Z,540.00
2023-07-15T11:28:44.352Z,539.00
2023-07-15T11:29:44.356Z,538.00
2023-07-15T11:30:44.456Z,539.00
2023-07-15T11:31:44.395Z,536.00
2023-07-15T11:32:44.418Z,538.00
2023-07-15T11:33:44.426Z,537.00
2023-07-15T11:34:44.457Z,539.00
2023-07-15T11:35:44.468Z,538.00
2023-07-15T11:36:44.484Z,541.00
2023-07-15T11:37:44.502Z,542.00
2023-07-15T11:38:44.495Z,542.00
2023-07-15T11:39:44.513Z,539.00
2023-07-15T11:40:44.533Z,537.00
2023-07-15T11:41:44.551Z,535.00
2023-07-15T11:42:44.564Z,535.00
2023-07-15T11:43:44.587Z,535.00
2023-07-15T11:44:44.623Z,533.00
2023-07-15T11:45:44.622Z,529.00
2023-07-15T11:46:44.691Z,530.00
2023-07-15T11:47:44.743Z,531.00
2023-07-15T11:48:44.684Z,533.00
2023-07-15T11:49:44.711Z,532.00
2023-07-15T11:50:44.713Z,531.00
2023-07-15T11:51:44.741Z,530.00
2023-07-15T11:52:44.744Z,529.00
2023-07-15T11:53:44.779Z,528.00
2023-07-15T11:54:44.781Z,527.00
2023-07-15T11:55:44.795Z,525.00
2023-07-15T11:56:44.811Z,524.00
2023-07-15T11:57:44.838Z,524.00
2023-07-15T11:58:44.849Z,526.00
2023-07-15T11:59:44.859Z,521.00
2023-07-15T12:00:47.158Z,525.00
2023-07-15T12:01:45.068Z,524.00
2023-07-15T12:02:45.113Z,524.00
2023-07-15T12:03:45.149Z,524.00
2023-07-15T12:04:45.113Z,527.00
2023-07-15T12:05:45.130Z,527.00
2023-07-15T12:06:45.144Z,529.00
2023-07-15T12:07:47.533Z,527.00
2023-07-15T12:08:45.149Z,528.00
2023-07-15T12:09:45.178Z,528.00
2023-07-15T12:10:45.145Z,526.00
2023-07-15T12:11:45.132Z,524.00
2023-07-15T12:12:45.129Z,522.00
2023-07-15T12:13:45.118Z,521.00
2023-07-15T12:14:45.122Z,521.00
2023-07-15T12:15:45.103Z,519.00
2023-07-15T12:16:45.138Z,519.00
2023-07-15T12:17:45.115Z,519.00
2023-07-15T12:18:45.097Z,520.00
2023-07-15T12:19:45.090Z,520.00
2023-07-15T12:20:45.078Z,520.00
2023-07-15T12:21:45.065Z,521.00
2023-07-15T12:22:45.089Z,522.00
2023-07-15T12:23:45.060Z,521.00
2023-07-15T12:24:45.059Z,518.00
2023-07-15T12:25:45.046Z,518.00
2023-07-15T12:26:45.065Z,516.00
2023-07-15T12:27:45.034Z,514.00
2023-07-15T12:28:45.026Z,512.00